createdAt,value
2018-12-06T03:14:00.011Z,0.00
2018-12-06T03:14:59.978Z,0.00
2018-12-06T03:15:59.967Z,0.00
2018-12-06T03:16:59.968Z,0.00
2018-12-06T03:17:59.948Z,0.00
2018-12-06T03:18:59.928Z,0.00
2018-12-06T03:19:59.936Z,0.00
2018-12-06T03:20:59.911Z,0.00
2018-12-06T03:21:59.889Z,0.00
2018-12-06T03:22:59.885Z,0.00
2018-12-06T03:23:59.879Z,0.00
2018-12-06T03:24:59.862Z,0.00
2018-12-06T03:25:59.862Z,0.00
2018-12-06T03:26:59.861Z,0.00
2018-12-06T03:27:59.850Z,0.00
2018-12-06T03:28:59.835Z,0.00
2018-12-06T03:29:59.832Z,0.00
2018-12-06T03:30:59.819Z,0.00
2018-12-06T03:31:59.814Z,0.00
2018-12-06T03:32:59.801Z,0.00
2018-12-06T03:33:59.785Z,0.00
2018-12-06T03:34:59.797Z,0.00
2018-12-06T03:42:31.858Z,0.00
2018-12-06T03:42:55.705Z,0.00
2018-12-06T03:43:55.699Z,0.00
2018-12-06T03:44:55.695Z,0.00
2018-12-06T03:45:55.683Z,0.00
2018-12-06T03:46:55.678Z,0.00
2018-12-06T03:47:55.679Z,0.00
2018-12-06T03:48:55.662Z,0.00
2018-12-06T03:49:55.654Z,0.00
2018-12-06T03:50:55.644Z,0.00
2018-12-06T03:51:55.652Z,0.00
2018-12-06T03:52:55.632Z,0.00
2018-12-06T03:53:55.624Z,0.00
2018-12-06T03:54:55.614Z,0.00
2018-12-06T03:55:55.610Z,0.00
2018-12-06T03:56:55.595Z,0.00
2018-12-06T03:57:55.590Z,0.00
2018-12-06T03:58:55.585Z,0.00
2018-12-06T03:59:55.625Z,0.00
2018-12-06T04:00:55.569Z,0.00
2018-12-06T04:01:55.558Z,0.00
2018-12-06T04:02:55.562Z,0.00
2018-12-06T04:03:55.551Z,0.00
2018-12-06T04:04:55.530Z,0.00
2018-12-06T04:05:55.539Z,0.00
2018-12-06T04:06:55.523Z,0.00
2018-12-06T04:07:55.517Z,0.00
2018-12-06T04:08:55.504Z,0.00
2018-12-06T04:09:55.513Z,0.00
2018-12-06T04:10:55.493Z,0.00
2018-12-06T04:11:55.497Z,0.00
2018-12-06T04:12:55.481Z,0.00
2018-12-06T04:13:55.480Z,0.00
2018-12-06T04:14:55.464Z,0.00
2018-12-06T04:15:55.457Z,0.00
2018-12-06T04:16:55.450Z,0.00
2018-12-06T04:17:55.445Z,0.00
2018-12-06T04:18:55.433Z,0.00
2018-12-06T04:19:55.438Z,0.00
2018-12-06T04:20:55.512Z,0.00
2018-12-06T04:21:55.419Z,0.00
2018-12-06T04:22:55.399Z,0.00
2018-12-06T04:23:55.403Z,0.00
2018-12-06T04:24:55.404Z,0.00
2018-12-06T04:25:55.385Z,0.00
2018-12-06T04:26:55.373Z,0.00
2018-12-06T04:27:55.363Z,0.00
2018-12-06T04:28:55.362Z,0.00
2018-12-06T04:29:55.351Z,0.00
2018-12-06T04:30:55.341Z,0.00
2018-12-06T04:31:55.343Z,0.00
2018-12-06T04:32:55.332Z,0.00
2018-12-06T04:33:55.315Z,0.00
2018-12-06T04:34:55.311Z,0.00
2018-12-06T04:35:55.305Z,0.00
2018-12-06T04:36:55.305Z,0.00
2018-12-06T04:37:55.296Z,0.00
2018-12-06T04:38:55.291Z,0.00
2018-12-06T04:39:55.279Z,0.00
2018-12-06T04:40:55.261Z,0.00
2018-12-06T04:41:55.259Z,0.00
2018-12-06T04:42:55.252Z,0.00
2018-12-06T04:43:55.252Z,0.00
2018-12-06T04:44:55.241Z,0.00
2018-12-06T04:45:55.235Z,0.00
2018-12-06T04:46:55.240Z,0.00
2018-12-06T04:47:55.213Z,0.00
2018-12-06T04:48:55.209Z,0.00
2018-12-06T04:49:55.205Z,0.00
2018-12-06T04:50:55.199Z,0.00
2018-12-06T04:51:55.188Z,0.00
2018-12-06T04:52:55.183Z,0.00
2018-12-06T04:53:55.183Z,0.00
2018-12-06T04:54:55.166Z,0.00
2018-12-06T04:55:55.154Z,0.00
2018-12-06T04:56:55.155Z,0.00
2018-12-06T04:57:55.145Z,0.00
2018-12-06T04:58:55.139Z,0.00
2018-12-06T04:59:55.130Z,0.00
2018-12-06T05:00:55.126Z,0.00
2018-12-06T05:01:55.127Z,0.00
2018-12-06T05:02:55.108Z,0.00
2018-12-06T05:03:55.097Z,0.00
2018-12-06T05:04:55.092Z,0.00
2018-12-06T05:05:55.085Z,0.00
2018-12-06T05:06:55.087Z,0.00
2018-12-06T05:07:55.061Z,0.00
2018-12-06T05:08:55.071Z,0.00
2018-12-06T05:09:55.063Z,0.00
2018-12-06T05:10:55.049Z,0.00
2018-12-06T05:11:55.039Z,0.00
2018-12-06T05:12:55.033Z,0.00
2018-12-06T05:13:55.032Z,0.00
2018-12-06T05:14:55.021Z,0.00
2018-12-06T05:15:55.012Z,0.00
2018-12-06T05:16:55.010Z,0.00
2018-12-06T05:17:54.998Z,0.00
2018-12-06T05:18:54.984Z,0.00
2018-12-06T05:19:54.977Z,0.00
2018-12-06T05:20:54.982Z,0.00
2018-12-06T05:21:54.959Z,0.00
2018-12-06T05:22:54.962Z,0.00
2018-12-06T05:23:54.954Z,0.00
2018-12-06T05:24:55.009Z,0.00
2018-12-06T05:25:54.952Z,0.00
2018-12-06T05:26:54.931Z,0.00
2018-12-06T05:27:54.933Z,0.00
2018-12-06T05:28:54.920Z,0.00
2018-12-06T05:29:54.919Z,0.00
2018-12-06T05:30:54.897Z,0.00
2018-12-06T05:31:54.931Z,0.00
2018-12-06T05:32:54.892Z,0.00
2018-12-06T05:33:54.883Z,0.00
2018-12-06T05:34:54.886Z,0.00
2018-12-06T05:35:54.877Z,0.00
2018-12-06T05:36:54.859Z,0.00
2018-12-06T05:37:54.845Z,0.00
2018-12-06T05:38:54.840Z,0.00
2018-12-06T05:39:54.841Z,0.00
2018-12-06T05:41:03.491Z,0.00
2018-12-06T05:42:48.242Z,0.00
2018-12-06T05:43:48.221Z,0.00
2018-12-06T05:44:48.220Z,0.00
2018-12-06T05:45:48.210Z,0.00
2018-12-06T05:46:48.204Z,0.00
2018-12-06T05:47:48.197Z,0.00
2018-12-06T05:48:48.186Z,0.00
2018-12-06T05:51:20.323Z,0.00
2018-12-06T05:52:20.294Z,0.00
2018-12-06T05:53:20.328Z,0.00
2018-12-06T05:54:20.280Z,0.00
2018-12-06T05:55:20.273Z,0.00
2018-12-06T05:56:20.275Z,0.00
2018-12-06T05:57:20.263Z,0.00
2018-12-06T05:58:20.249Z,0.00
2018-12-06T05:59:20.247Z,0.00
2018-12-06T06:00:20.250Z,0.00
2018-12-06T06:01:20.226Z,0.00
2018-12-06T06:02:20.229Z,0.00
2018-12-06T06:03:20.216Z,0.00
2018-12-06T06:04:20.215Z,0.00
2018-12-06T06:05:20.205Z,0.00
2018-12-06T06:06:20.200Z,0.00
2018-12-06T06:07:20.187Z,0.00
2018-12-06T06:08:20.173Z,0.00
2018-12-06T06:09:20.175Z,0.00
2018-12-06T06:10:20.166Z,0.00
2018-12-06T06:11:20.152Z,0.00
2018-12-06T06:12:20.165Z,0.00
2018-12-06T06:13:20.148Z,0.00
2018-12-06T06:14:20.141Z,0.00
2018-12-06T06:15:20.132Z,0.00
2018-12-06T06:16:20.134Z,0.00
2018-12-06T06:17:20.122Z,0.00
2018-12-06T06:18:20.101Z,0.00
2018-12-06T06:19:20.103Z,0.00
2018-12-06T06:20:20.092Z,0.00
2018-12-06T06:21:20.095Z,0.00
2018-12-06T06:22:21.615Z,0.00
2018-12-06T06:23:20.074Z,0.00
2018-12-06T06:24:20.060Z,0.00
2018-12-06T06:25:20.056Z,0.00
2018-12-06T06:26:20.047Z,0.00
2018-12-06T06:27:20.050Z,0.00
2018-12-06T06:28:20.037Z,0.00
2018-12-06T06:29:20.057Z,0.00
2018-12-06T06:30:20.022Z,0.00
2018-12-06T06:31:20.031Z,0.00
2018-12-06T06:32:20.007Z,0.00
2018-12-06T06:33:20.000Z,0.00
2018-12-06T06:34:19.998Z,0.00
2018-12-06T06:35:19.989Z,0.00
2018-12-06T06:36:19.981Z,0.00
2018-12-06T06:37:19.979Z,0.00
2018-12-06T06:38:19.971Z,0.00
2018-12-06T06:39:19.976Z,0.00
2018-12-06T06:40:19.957Z,0.00
2018-12-06T06:41:19.946Z,0.00
2018-12-06T06:42:19.945Z,0.00
2018-12-06T06:43:19.934Z,0.00
2018-12-06T06:44:19.925Z,0.00
2018-12-06T06:45:19.920Z,0.00
2018-12-06T06:46:19.909Z,0.00
2018-12-06T06:47:19.903Z,0.00
2018-12-06T06:48:19.894Z,0.00
2018-12-06T06:49:19.895Z,0.00
2018-12-06T06:50:19.889Z,0.00
2018-12-06T06:51:19.887Z,0.00
2018-12-06T06:52:19.870Z,0.00
2018-12-06T06:53:19.875Z,0.00
2018-12-06T06:54:19.896Z,4.00
2018-12-06T06:55:19.855Z,4.00
2018-12-06T06:56:19.847Z,4.00
2018-12-06T06:57:19.842Z,4.00
2018-12-06T06:58:19.843Z,4.00
2018-12-06T06:59:25.985Z,4.00
2018-12-06T07:00:19.823Z,4.00
2018-12-06T07:01:19.814Z,8.00
2018-12-06T07:02:19.808Z,8.00
2018-12-06T07:03:19.798Z,8.00
2018-12-06T07:04:19.793Z,4.00
2018-12-06T07:05:19.790Z,4.00
2018-12-06T07:06:19.798Z,4.00
2018-12-06T07:07:19.775Z,4.00
2018-12-06T07:08:19.771Z,4.00
2018-12-06T07:09:19.772Z,4.00
2018-12-06T07:10:19.760Z,8.00
2018-12-06T07:11:19.758Z,4.00
2018-12-06T07:12:19.747Z,8.00
2018-12-06T07:13:19.738Z,8.00
2018-12-06T07:14:19.728Z,8.00
2018-12-06T07:15:19.727Z,12.00
2018-12-06T07:16:19.717Z,12.00
2018-12-06T07:17:19.709Z,8.00
2018-12-06T07:18:19.712Z,8.00
2018-12-06T07:19:19.722Z,8.00
2018-12-06T07:20:19.690Z,8.00
2018-12-06T07:21:19.689Z,8.00
2018-12-06T07:22:19.674Z,12.00
2018-12-06T07:23:19.671Z,8.00
2018-12-06T07:24:19.672Z,12.00
2018-12-06T07:25:19.652Z,12.00
2018-12-06T07:26:19.662Z,12.00
2018-12-06T07:27:19.646Z,12.00
2018-12-06T07:28:19.634Z,16.00
2018-12-06T07:29:19.630Z,16.00
2018-12-06T07:30:19.623Z,16.00
2018-12-06T07:31:19.612Z,20.00
2018-12-06T07:32:19.608Z,20.00
2018-12-06T07:33:19.606Z,20.00
2018-12-06T07:34:19.620Z,24.00
2018-12-06T07:35:19.612Z,24.00
2018-12-06T07:36:19.588Z,28.00
2018-12-06T07:37:19.584Z,32.00
2018-12-06T07:38:19.574Z,36.00
2018-12-06T07:39:19.570Z,32.00
2018-12-06T07:40:19.561Z,36.00
2018-12-06T07:41:19.562Z,36.00
2018-12-06T07:42:19.571Z,36.00
2018-12-06T07:43:19.538Z,36.00
2018-12-06T07:44:19.536Z,36.00
2018-12-06T07:45:19.531Z,36.00
2018-12-06T07:46:19.523Z,32.00
2018-12-06T07:47:19.514Z,36.00
2018-12-06T07:48:19.508Z,32.00
2018-12-06T07:49:19.509Z,32.00
2018-12-06T07:50:19.495Z,32.00
2018-12-06T07:51:19.486Z,40.00
2018-12-06T07:52:19.494Z,44.00
2018-12-06T07:53:19.481Z,52.00
2018-12-06T07:54:19.474Z,56.00
2018-12-06T07:55:19.468Z,56.00
2018-12-06T07:56:19.458Z,60.00
2018-12-06T07:57:19.462Z,64.00
2018-12-06T07:58:19.450Z,72.00
2018-12-06T07:59:19.465Z,68.00
2018-12-06T08:00:19.433Z,72.00
2018-12-06T08:01:19.425Z,76.00
2018-12-06T08:02:19.418Z,68.00
2018-12-06T08:03:19.411Z,68.00
2018-12-06T08:04:19.407Z,72.00
2018-12-06T08:05:19.406Z,80.00
2018-12-06T08:06:19.399Z,84.00
2018-12-06T08:07:19.396Z,84.00
2018-12-06T08:08:19.385Z,88.00
2018-12-06T08:09:19.399Z,96.00
2018-12-06T08:10:19.364Z,108.00
2018-12-06T08:11:19.361Z,108.00
2018-12-06T08:12:19.354Z,108.00
2018-12-06T08:13:19.347Z,100.00
2018-12-06T08:14:19.346Z,100.00
2018-12-06T08:15:19.332Z,92.00
2018-12-06T08:16:19.333Z,84.00
2018-12-06T08:17:19.324Z,84.00
2018-12-06T08:18:19.322Z,84.00
2018-12-06T08:19:19.316Z,84.00
2018-12-06T08:20:19.314Z,92.00
2018-12-06T08:21:19.305Z,108.00
2018-12-06T08:22:19.294Z,128.00
2018-12-06T08:23:19.300Z,156.00
2018-12-06T08:24:19.283Z,176.00
2018-12-06T08:25:19.280Z,184.00
2018-12-06T08:26:19.274Z,188.00
2018-12-06T08:27:19.255Z,204.00
2018-12-06T08:28:19.305Z,260.00
2018-12-06T08:29:19.251Z,292.00
2018-12-06T08:30:19.244Z,312.00
2018-12-06T08:31:19.250Z,284.00
2018-12-06T08:32:19.230Z,228.00
2018-12-06T08:33:19.231Z,204.00
2018-12-06T08:34:19.216Z,184.00
2018-12-06T08:35:19.217Z,176.00
2018-12-06T08:36:19.204Z,152.00
2018-12-06T08:37:19.202Z,124.00
2018-12-06T08:38:19.194Z,112.00
2018-12-06T08:39:19.194Z,108.00
2018-12-06T08:40:19.175Z,100.00
2018-12-06T08:41:19.173Z,92.00
2018-12-06T08:42:19.163Z,92.00
2018-12-06T08:43:19.159Z,80.00
2018-12-06T08:44:21.473Z,76.00
2018-12-06T08:45:19.165Z,72.00
2018-12-06T08:46:19.146Z,68.00
2018-12-06T08:47:19.133Z,72.00
2018-12-06T08:48:19.140Z,76.00
2018-12-06T08:49:19.133Z,76.00
2018-12-06T08:50:19.122Z,80.00
2018-12-06T08:51:19.119Z,88.00
2018-12-06T08:52:19.109Z,104.00
2018-12-06T08:53:19.125Z,116.00
2018-12-06T08:54:19.100Z,124.00
2018-12-06T08:55:19.098Z,120.00
2018-12-06T08:56:19.086Z,116.00
2018-12-06T08:57:19.092Z,104.00
2018-12-06T08:58:19.093Z,96.00
2018-12-06T08:59:19.079Z,88.00
2018-12-06T09:00:19.084Z,84.00
2018-12-06T09:01:19.050Z,84.00
2018-12-06T09:02:19.062Z,100.00
2018-12-06T09:03:19.060Z,96.00
2018-12-06T09:04:19.048Z,104.00
2018-12-06T09:05:19.029Z,108.00
2018-12-06T09:06:19.027Z,112.00
2018-12-06T09:07:19.017Z,124.00
2018-12-06T09:08:19.014Z,132.00
2018-12-06T09:09:19.038Z,144.00
2018-12-06T09:10:19.117Z,168.00
2018-12-06T09:11:19.004Z,188.00
2018-12-06T09:12:19.005Z,208.00
2018-12-06T09:13:18.982Z,224.00
2018-12-06T09:14:19.002Z,220.00
2018-12-06T09:15:18.999Z,224.00
2018-12-06T09:16:18.990Z,236.00
2018-12-06T09:17:18.978Z,248.00
2018-12-06T09:18:18.993Z,252.00
2018-12-06T09:19:18.957Z,268.00
2018-12-06T09:20:18.956Z,272.00
2018-12-06T09:21:18.944Z,260.00
2018-12-06T09:22:18.939Z,268.00
2018-12-06T09:23:18.919Z,260.00
2018-12-06T09:24:18.942Z,276.00
2018-12-06T09:25:21.220Z,284.00
2018-12-06T09:26:18.917Z,284.00
2018-12-06T09:27:18.906Z,284.00
2018-12-06T09:28:18.900Z,264.00
2018-12-06T09:29:18.897Z,264.00
2018-12-06T09:30:18.899Z,260.00
2018-12-06T09:31:18.914Z,268.00
2018-12-06T09:32:18.875Z,272.00
2018-12-06T09:33:18.866Z,268.00
2018-12-06T09:34:18.861Z,256.00
2018-12-06T09:35:18.856Z,256.00
2018-12-06T09:36:18.854Z,260.00
2018-12-06T09:37:18.869Z,264.00
2018-12-06T09:38:18.866Z,272.00
2018-12-06T09:39:18.843Z,284.00
2018-12-06T09:40:18.835Z,296.00
2018-12-06T09:41:18.839Z,300.00
2018-12-06T09:42:18.820Z,312.00
2018-12-06T09:43:18.859Z,316.00
2018-12-06T09:44:18.805Z,340.00
2018-12-06T09:45:18.809Z,360.00
2018-12-06T09:46:18.804Z,368.00
2018-12-06T09:47:18.795Z,372.00
2018-12-06T09:48:18.818Z,364.00
2018-12-06T09:49:18.804Z,352.00
2018-12-06T09:50:18.769Z,340.00
2018-12-06T09:51:18.775Z,312.00
2018-12-06T09:52:18.779Z,284.00
2018-12-06T09:53:18.762Z,272.00
2018-12-06T09:54:18.772Z,272.00
2018-12-06T09:55:18.746Z,276.00
2018-12-06T09:56:18.734Z,284.00
2018-12-06T09:57:18.734Z,292.00
2018-12-06T09:58:27.383Z,276.00
2018-12-06T10:00:23.237Z,236.00
2018-12-06T10:01:31.843Z,220.00
2018-12-06T10:03:16.818Z,192.00
2018-12-06T10:04:16.781Z,184.00
2018-12-06T10:05:18.548Z,184.00
2018-12-06T10:06:16.777Z,184.00
2018-12-06T10:07:16.767Z,184.00
2018-12-06T10:08:16.764Z,180.00
2018-12-06T10:09:16.757Z,184.00
2018-12-06T10:10:16.758Z,172.00
2018-12-06T10:11:16.753Z,168.00
2018-12-06T10:12:16.743Z,164.00
2018-12-06T10:13:16.742Z,164.00
2018-12-06T10:14:16.751Z,168.00
2018-12-06T10:15:16.719Z,176.00
2018-12-06T10:16:16.723Z,176.00
2018-12-06T10:17:16.720Z,172.00
2018-12-06T10:18:16.709Z,172.00
2018-12-06T10:19:16.706Z,168.00
2018-12-06T10:20:16.701Z,164.00
2018-12-06T10:21:16.699Z,156.00
2018-12-06T10:22:16.689Z,156.00
2018-12-06T10:23:16.684Z,156.00
2018-12-06T10:24:16.674Z,168.00
2018-12-06T10:25:16.673Z,168.00
2018-12-06T10:26:16.671Z,164.00
2018-12-06T10:27:16.668Z,164.00
2018-12-06T10:28:16.661Z,156.00
2018-12-06T10:29:16.653Z,156.00
2018-12-06T10:30:16.650Z,156.00
2018-12-06T10:31:16.640Z,152.00
2018-12-06T10:32:16.639Z,148.00
2018-12-06T10:33:16.631Z,152.00
2018-12-06T10:34:16.619Z,148.00
2018-12-06T10:35:16.630Z,144.00
2018-12-06T10:36:16.615Z,144.00
2018-12-06T10:37:16.613Z,136.00
2018-12-06T10:38:16.603Z,132.00
2018-12-06T10:39:16.599Z,124.00
2018-12-06T10:40:16.593Z,128.00
2018-12-06T10:41:16.587Z,132.00
2018-12-06T10:42:16.585Z,136.00
2018-12-06T10:43:16.577Z,140.00
2018-12-06T10:44:16.570Z,144.00
2018-12-06T10:45:16.570Z,144.00
2018-12-06T10:46:16.558Z,136.00
2018-12-06T10:47:16.562Z,128.00
2018-12-06T10:48:16.557Z,120.00
2018-12-06T10:49:16.549Z,116.00
2018-12-06T10:50:16.540Z,112.00
2018-12-06T10:51:16.539Z,116.00
2018-12-06T10:52:16.534Z,124.00
2018-12-06T10:53:16.527Z,132.00
2018-12-06T10:54:16.522Z,144.00
2018-12-06T10:55:16.515Z,148.00
2018-12-06T10:56:16.510Z,164.00
2018-12-06T10:57:16.502Z,172.00
2018-12-06T10:58:25.164Z,184.00
2018-12-06T11:00:20.984Z,200.00
2018-12-06T11:01:20.960Z,208.00
2018-12-06T11:02:20.957Z,212.00
2018-12-06T11:03:20.955Z,216.00
2018-12-06T11:04:20.945Z,224.00
2018-12-06T11:05:20.949Z,228.00
2018-12-06T11:06:20.938Z,232.00
2018-12-06T11:07:20.923Z,236.00
2018-12-06T11:08:20.920Z,224.00
2018-12-06T11:09:20.921Z,216.00
2018-12-06T11:10:20.922Z,204.00
2018-12-06T11:11:20.912Z,208.00
2018-12-06T11:12:20.909Z,216.00
2018-12-06T11:13:20.896Z,232.00
2018-12-06T11:14:20.893Z,228.00
2018-12-06T11:15:20.889Z,228.00
2018-12-06T11:16:20.887Z,236.00
2018-12-06T11:17:20.875Z,248.00
2018-12-06T11:18:20.867Z,256.00
2018-12-06T11:19:20.871Z,272.00
2018-12-06T11:20:20.860Z,280.00
2018-12-06T11:21:20.856Z,304.00
2018-12-06T11:22:20.848Z,316.00
2018-12-06T11:23:20.848Z,336.00
2018-12-06T11:24:20.844Z,352.00
2018-12-06T11:25:20.838Z,352.00
2018-12-06T11:26:20.825Z,352.00
2018-12-06T11:27:20.825Z,352.00
2018-12-06T11:28:20.819Z,360.00
2018-12-06T11:29:20.815Z,372.00
2018-12-06T11:30:20.810Z,380.00
2018-12-06T11:31:20.805Z,392.00
2018-12-06T11:32:20.802Z,384.00
2018-12-06T11:33:20.799Z,396.00
2018-12-06T11:34:20.781Z,372.00
2018-12-06T11:35:20.784Z,356.00
2018-12-06T11:36:20.778Z,356.00
2018-12-06T11:37:20.776Z,360.00
2018-12-06T11:38:20.777Z,380.00
2018-12-06T11:39:20.764Z,408.00
2018-12-06T11:40:20.769Z,424.00
2018-12-06T11:41:20.753Z,436.00
2018-12-06T11:42:20.748Z,448.00
2018-12-06T11:43:20.735Z,476.00
2018-12-06T11:44:20.740Z,504.00
2018-12-06T11:45:20.734Z,516.00
2018-12-06T11:46:20.793Z,540.00
2018-12-06T11:47:20.722Z,564.00
2018-12-06T11:48:26.958Z,588.00
2018-12-06T11:49:20.718Z,608.00
2018-12-06T11:50:20.710Z,628.00
2018-12-06T11:51:20.703Z,652.00
2018-12-06T11:52:20.696Z,672.00
2018-12-06T11:53:20.691Z,680.00
2018-12-06T11:54:20.691Z,688.00
2018-12-06T11:55:20.774Z,700.00
2018-12-06T11:56:20.682Z,688.00
2018-12-06T11:57:20.672Z,692.00
2018-12-06T11:58:20.673Z,692.00
2018-12-06T11:59:20.662Z,740.00
2018-12-06T12:00:20.659Z,792.00
2018-12-06T12:01:20.652Z,816.00
2018-12-06T12:02:20.650Z,864.00
2018-12-06T12:03:20.649Z,916.00
2018-12-06T12:04:20.642Z,932.00
2018-12-06T12:05:20.637Z,944.00
2018-12-06T12:06:20.639Z,996.00
2018-12-06T12:07:20.623Z,984.00
2018-12-06T12:08:20.626Z,984.00
2018-12-06T12:09:20.618Z,996.00
2018-12-06T12:10:20.619Z,1016.00
2018-12-06T12:11:20.606Z,1004.00
2018-12-06T12:12:20.607Z,1024.00
2018-12-06T12:13:20.600Z,1000.00
2018-12-06T12:14:20.597Z,996.00
2018-12-06T12:15:20.613Z,996.00
2018-12-06T12:16:20.590Z,996.00
2018-12-06T12:17:20.581Z,984.00
2018-12-06T12:18:20.573Z,996.00
2018-12-06T12:19:20.573Z,976.00
2018-12-06T12:20:20.566Z,992.00
2018-12-06T12:21:20.558Z,992.00
2018-12-06T12:22:20.567Z,988.00
2018-12-06T12:23:20.555Z,996.00
2018-12-06T12:24:20.549Z,1000.00
2018-12-06T12:25:20.542Z,1056.00
2018-12-06T12:26:20.561Z,980.00
2018-12-06T12:27:20.545Z,972.00
2018-12-06T12:28:20.535Z,1008.00
2018-12-06T12:29:20.522Z,988.00
2018-12-06T12:30:20.520Z,964.00
2018-12-06T12:31:20.514Z,996.00
2018-12-06T12:32:20.514Z,1036.00
2018-12-06T12:33:20.510Z,984.00
2018-12-06T12:34:20.508Z,1004.00
2018-12-06T12:35:20.503Z,1056.00
2018-12-06T12:36:20.491Z,1016.00
2018-12-06T12:37:20.493Z,1040.00
2018-12-06T12:38:20.484Z,1028.00
2018-12-06T12:39:20.473Z,1020.00
2018-12-06T12:40:20.476Z,1028.00
2018-12-06T12:41:20.467Z,1000.00
2018-12-06T12:42:20.471Z,1000.00
2018-12-06T12:43:20.467Z,996.00
2018-12-06T12:44:20.456Z,1016.00
2018-12-06T12:45:20.451Z,1012.00
2018-12-06T12:46:20.457Z,1024.00
2018-12-06T12:47:20.441Z,1036.00
2018-12-06T12:48:20.437Z,1016.00
2018-12-06T12:49:20.447Z,984.00
2018-12-06T12:50:20.433Z,996.00
2018-12-06T12:51:20.435Z,1000.00
2018-12-06T12:52:20.421Z,988.00
2018-12-06T12:53:20.413Z,960.00
2018-12-06T12:54:20.419Z,960.00
2018-12-06T12:55:20.409Z,948.00
2018-12-06T12:56:20.410Z,896.00
2018-12-06T12:57:20.395Z,920.00
2018-12-06T12:58:20.395Z,932.00
2018-12-06T12:59:20.395Z,956.00
2018-12-06T13:00:20.391Z,944.00
2018-12-06T13:01:20.384Z,928.00
2018-12-06T13:02:20.374Z,928.00
2018-12-06T13:03:20.376Z,920.00
2018-12-06T13:04:20.362Z,900.00
2018-12-06T13:05:20.365Z,912.00
2018-12-06T13:06:20.363Z,896.00
2018-12-06T13:07:20.352Z,892.00
2018-12-06T13:08:20.351Z,904.00
2018-12-06T13:09:20.350Z,884.00
2018-12-06T13:10:20.349Z,888.00
2018-12-06T13:11:20.344Z,864.00
2018-12-06T13:12:20.335Z,844.00
2018-12-06T13:13:20.332Z,824.00
2018-12-06T13:14:20.323Z,820.00
2018-12-06T13:15:20.329Z,820.00
2018-12-06T13:16:20.312Z,812.00
2018-12-06T13:17:20.318Z,788.00
2018-12-06T13:18:20.308Z,784.00
2018-12-06T13:19:20.308Z,760.00
2018-12-06T13:20:20.305Z,648.00
2018-12-06T13:21:20.297Z,700.00
2018-12-06T13:22:20.297Z,648.00
2018-12-06T13:23:20.302Z,572.00
2018-12-06T13:24:20.289Z,528.00
2018-12-06T13:25:20.280Z,448.00
2018-12-06T13:26:29.948Z,392.00
2018-12-06T13:28:24.773Z,380.00
2018-12-06T13:29:24.751Z,348.00
2018-12-06T13:30:24.752Z,340.00
2018-12-06T13:31:24.748Z,332.00
2018-12-06T13:32:24.740Z,320.00
2018-12-06T13:33:24.735Z,312.00
2018-12-06T13:34:24.734Z,292.00
2018-12-06T13:35:24.733Z,292.00
2018-12-06T13:36:24.723Z,276.00
2018-12-06T13:37:24.722Z,260.00
2018-12-06T13:38:24.711Z,236.00
2018-12-06T13:39:24.710Z,240.00
2018-12-06T13:40:24.709Z,244.00
2018-12-06T13:41:24.762Z,236.00
2018-12-06T13:42:24.698Z,232.00
2018-12-06T13:43:24.691Z,224.00
2018-12-06T13:44:24.687Z,216.00
2018-12-06T13:45:24.686Z,216.00
2018-12-06T13:46:24.682Z,224.00
2018-12-06T13:47:24.676Z,224.00
2018-12-06T13:48:24.678Z,240.00
2018-12-06T13:49:24.677Z,252.00
2018-12-06T13:50:24.667Z,260.00
2018-12-06T13:51:24.657Z,272.00
2018-12-06T13:52:24.652Z,276.00
2018-12-06T13:53:24.652Z,292.00
2018-12-06T13:54:27.016Z,312.00
2018-12-06T13:55:24.645Z,320.00
2018-12-06T13:56:24.636Z,312.00
2018-12-06T13:57:24.635Z,320.00
2018-12-06T13:58:24.638Z,324.00
2018-12-06T13:59:24.626Z,336.00
2018-12-06T14:00:24.823Z,324.00
2018-12-06T14:01:24.874Z,324.00
2018-12-06T14:02:24.631Z,320.00
2018-12-06T14:03:24.607Z,320.00
2018-12-06T14:04:24.613Z,320.00
2018-12-06T14:05:24.599Z,316.00
2018-12-06T14:06:24.600Z,316.00
2018-12-06T14:07:24.595Z,304.00
2018-12-06T14:08:24.592Z,292.00
2018-12-06T14:09:24.587Z,284.00
2018-12-06T14:10:24.582Z,280.00
2018-12-06T14:11:24.584Z,272.00
2018-12-06T14:12:24.575Z,268.00
2018-12-06T14:13:24.575Z,264.00
2018-12-06T14:14:24.561Z,264.00
2018-12-06T14:15:24.574Z,248.00
2018-12-06T14:16:24.565Z,232.00
2018-12-06T14:17:24.562Z,208.00
2018-12-06T14:18:24.555Z,200.00
2018-12-06T14:19:24.548Z,180.00
2018-12-06T14:20:24.545Z,164.00
2018-12-06T14:21:24.542Z,152.00
2018-12-06T14:22:24.539Z,140.00
2018-12-06T14:23:24.533Z,120.00
2018-12-06T14:24:24.549Z,112.00
2018-12-06T14:25:24.523Z,100.00
2018-12-06T14:26:24.517Z,88.00
2018-12-06T14:27:24.523Z,80.00
2018-12-06T14:28:24.509Z,72.00
2018-12-06T14:29:24.514Z,64.00
2018-12-06T14:30:24.515Z,56.00
2018-12-06T14:31:24.496Z,56.00
2018-12-06T14:32:24.492Z,60.00
2018-12-06T14:33:24.486Z,60.00
2018-12-06T14:34:24.485Z,64.00
2018-12-06T14:35:24.496Z,68.00
2018-12-06T14:36:24.473Z,68.00
2018-12-06T14:37:24.471Z,68.00
2018-12-06T14:38:24.476Z,64.00
2018-12-06T14:39:24.478Z,60.00
2018-12-06T14:40:24.476Z,60.00
2018-12-06T14:41:24.459Z,52.00
2018-12-06T14:42:24.474Z,52.00
2018-12-06T14:43:24.451Z,44.00
2018-12-06T14:44:24.468Z,44.00
2018-12-06T14:45:33.087Z,40.00
2018-12-06T14:47:28.936Z,36.00
2018-12-06T14:48:28.910Z,32.00
2018-12-06T14:49:28.919Z,32.00
2018-12-06T14:50:28.897Z,28.00
2018-12-06T14:51:28.913Z,32.00
2018-12-06T14:52:28.906Z,32.00
2018-12-06T14:53:28.886Z,32.00
2018-12-06T14:54:28.878Z,36.00
2018-12-06T14:55:28.885Z,36.00
2018-12-06T14:56:28.894Z,36.00
2018-12-06T14:57:28.901Z,32.00
2018-12-06T14:58:28.872Z,32.00
2018-12-06T14:59:28.962Z,32.00
2018-12-06T15:00:28.859Z,28.00
2018-12-06T15:01:28.852Z,28.00
2018-12-06T15:02:28.923Z,28.00
2018-12-06T15:03:28.873Z,24.00
2018-12-06T15:04:29.770Z,24.00
2018-12-06T15:05:28.875Z,20.00
2018-12-06T15:06:28.834Z,16.00
2018-12-06T15:07:28.828Z,16.00
2018-12-06T15:08:28.826Z,16.00
2018-12-06T15:09:28.855Z,8.00
2018-12-06T15:10:28.827Z,12.00
2018-12-06T15:11:28.823Z,12.00
2018-12-06T15:12:28.818Z,12.00
2018-12-06T15:13:28.826Z,8.00
2018-12-06T15:14:28.843Z,12.00
2018-12-06T15:15:28.812Z,8.00
2018-12-06T15:16:28.797Z,8.00
2018-12-06T15:17:28.790Z,8.00
2018-12-06T15:18:28.807Z,12.00
2018-12-06T15:19:28.806Z,12.00
2018-12-06T15:20:28.783Z,12.00
2018-12-06T15:21:28.771Z,12.00
2018-12-06T15:22:28.770Z,12.00
2018-12-06T15:23:28.772Z,12.00
2018-12-06T15:24:28.760Z,12.00
2018-12-06T15:25:28.802Z,8.00
2018-12-06T15:26:28.751Z,8.00
2018-12-06T15:27:28.781Z,8.00
2018-12-06T15:28:28.786Z,8.00
2018-12-06T15:29:28.780Z,8.00
2018-12-06T15:30:28.771Z,4.00
2018-12-06T15:31:28.745Z,4.00
2018-12-06T15:32:28.754Z,4.00
2018-12-06T15:33:28.751Z,4.00
2018-12-06T15:34:28.760Z,4.00
2018-12-06T15:35:28.751Z,4.00
2018-12-06T15:36:28.750Z,4.00
2018-12-06T15:37:28.748Z,4.00
2018-12-06T15:38:28.714Z,4.00
2018-12-06T15:39:28.699Z,4.00
2018-12-06T15:40:28.699Z,0.00
2018-12-06T15:41:28.726Z,0.00
2018-12-06T15:42:28.732Z,0.00
2018-12-06T15:43:28.730Z,0.00
2018-12-06T15:44:28.680Z,4.00
2018-12-06T15:45:28.727Z,4.00
2018-12-06T15:46:28.663Z,4.00
2018-12-06T15:47:28.742Z,0.00
2018-12-06T15:48:28.661Z,0.00
2018-12-06T15:49:28.701Z,0.00
2018-12-06T15:50:28.677Z,0.00
2018-12-06T15:51:28.680Z,0.00
2018-12-06T15:52:28.634Z,0.00
2018-12-06T15:53:28.704Z,0.00
2018-12-06T15:54:28.684Z,0.00
2018-12-06T15:55:28.646Z,0.00
2018-12-06T15:56:28.628Z,0.00
2018-12-06T15:57:28.691Z,0.00
2018-12-06T15:58:28.618Z,0.00
2018-12-06T15:59:38.278Z,0.00
2018-12-06T16:01:33.113Z,0.00
2018-12-06T16:02:33.079Z,0.00
2018-12-06T16:03:33.073Z,0.00
2018-12-06T16:04:33.072Z,0.00
2018-12-06T16:05:33.080Z,0.00
2018-12-06T16:06:33.057Z,0.00
2018-12-06T16:07:33.102Z,0.00
2018-12-06T16:08:33.073Z,0.00
2018-12-06T16:09:33.058Z,0.00
2018-12-06T16:10:33.067Z,0.00
2018-12-06T16:11:33.038Z,0.00
2018-12-06T16:12:33.078Z,0.00
2018-12-06T16:13:33.040Z,0.00
2018-12-06T16:14:33.048Z,0.00
2018-12-06T16:15:33.033Z,0.00
2018-12-06T16:16:33.015Z,0.00
2018-12-06T16:17:33.012Z,0.00
2018-12-06T16:18:33.008Z,0.00